sensor_id;sensor_type;location;lat;lon;timestamp;pressure;altitude;pressure_sealevel;temperature;humidity
76605;BME280;73179;50.978;16.998;2023-10-19T00:01:10;99437.34;;;2.33;84.62
76605;BME280;73179;50.978;16.998;2023-10-19T00:03:37;99445.94;;;2.57;84.71
76605;BME280;73179;50.978;16.998;2023-10-19T00:06:03;99419.72;;;2.54;84.80
76605;BME280;73179;50.978;16.998;2023-10-19T00:08:31;99430.31;;;2.71;83.92
76605;BME280;73179;50.978;16.998;2023-10-19T00:11:11;99419.38;;;2.72;84.01
76605;BME280;73179;50.978;16.998;2023-10-19T00:13:47;99433.66;;;2.83;83.38
76605;BME280;73179;50.978;16.998;2023-10-19T00:16:16;99410.03;;;2.75;83.52
76605;BME280;73179;50.978;16.998;2023-10-19T00:18:46;99394.97;;;2.64;83.64
76605;BME280;73179;50.978;16.998;2023-10-19T00:21:16;99416.13;;;2.70;83.73
76605;BME280;73179;50.978;16.998;2023-10-19T00:23:54;99417.25;;;2.74;83.65
76605;BME280;73179;50.978;16.998;2023-10-19T00:26:27;99387.47;;;2.61;83.88
76605;BME280;73179;50.978;16.998;2023-10-19T00:28:55;99402.63;;;2.82;83.24
76605;BME280;73179;50.978;16.998;2023-10-19T00:31:26;99390.59;;;2.79;83.59
76605;BME280;73179;50.978;16.998;2023-10-19T00:33:53;99374.16;;;2.66;83.29
76605;BME280;73179;50.978;16.998;2023-10-19T00:36:23;99359.56;;;2.52;83.46
76605;BME280;73179;50.978;16.998;2023-10-19T00:38:50;99366.03;;;2.56;83.88
76605;BME280;73179;50.978;16.998;2023-10-19T00:41:18;99384.13;;;2.75;83.41
76605;BME280;73179;50.978;16.998;2023-10-19T00:43:54;99377.94;;;2.70;83.80
76605;BME280;73179;50.978;16.998;2023-10-19T00:46:29;99349.03;;;2.40;83.78
76605;BME280;73179;50.978;16.998;2023-10-19T00:49:18;99342.88;;;2.39;84.79
76605;BME280;73179;50.978;16.998;2023-10-19T00:51:47;99338.06;;;2.36;84.59
76605;BME280;73179;50.978;16.998;2023-10-19T00:54:31;99348.59;;;2.48;83.96
76605;BME280;73179;50.978;16.998;2023-10-19T00:57:08;99345.75;;;2.55;84.13
76605;BME280;73179;50.978;16.998;2023-10-19T00:59:40;99326.97;;;2.50;83.17
76605;BME280;73179;50.978;16.998;2023-10-19T01:02:14;99345.38;;;2.73;82.90
76605;BME280;73179;50.978;16.998;2023-10-19T01:04:43;99350.16;;;2.71;83.28
76605;BME280;73179;50.978;16.998;2023-10-19T01:07:11;99340.47;;;2.65;83.55
76605;BME280;73179;50.978;16.998;2023-10-19T01:09:42;99322.59;;;2.38;84.15
76605;BME280;73179;50.978;16.998;2023-10-19T01:12:10;99312.56;;;2.24;84.96
76605;BME280;73179;50.978;16.998;2023-10-19T01:15:16;99315.53;;;2.27;84.08
76605;BME280;73179;50.978;16.998;2023-10-19T01:17:48;99306.28;;;2.13;84.77
76605;BME280;73179;50.978;16.998;2023-10-19T01:20:29;99318.44;;;2.26;84.36
76605;BME280;73179;50.978;16.998;2023-10-19T01:23:06;99305.91;;;2.26;84.77
76605;BME280;73179;50.978;16.998;2023-10-19T01:25:47;99291.31;;;2.34;84.30
76605;BME280;73179;50.978;16.998;2023-10-19T01:28:17;99287.81;;;2.33;83.18
76605;BME280;73179;50.978;16.998;2023-10-19T01:30:44;99276.28;;;2.28;83.51
76605;BME280;73179;50.978;16.998;2023-10-19T01:33:11;99283.66;;;2.43;83.64
76605;BME280;73179;50.978;16.998;2023-10-19T01:35:47;99287.91;;;2.44;83.33
76605;BME280;73179;50.978;16.998;2023-10-19T01:38:33;99270.47;;;2.36;82.76
76605;BME280;73179;50.978;16.998;2023-10-19T01:41:00;99260.47;;;2.21;83.29
76605;BME280;73179;50.978;16.998;2023-10-19T01:43:27;99261.78;;;2.19;84.21
76605;BME280;73179;50.978;16.998;2023-10-19T01:46:00;99277.53;;;2.20;83.86
76605;BME280;73179;50.978;16.998;2023-10-19T01:48:42;99262.63;;;2.24;84.41
76605;BME280;73179;50.978;16.998;2023-10-19T01:51:08;99259.47;;;2.27;84.25
76605;BME280;73179;50.978;16.998;2023-10-19T01:53:40;99238.13;;;2.27;84.15
76605;BME280;73179;50.978;16.998;2023-10-19T01:56:24;99205.06;;;2.07;84.42
76605;BME280;73179;50.978;16.998;2023-10-19T01:58:51;99233.56;;;2.28;83.99
76605;BME280;73179;50.978;16.998;2023-10-19T02:01:17;99240.47;;;2.51;84.19
76605;BME280;73179;50.978;16.998;2023-10-19T02:03:55;99223.91;;;2.54;84.14
76605;BME280;73179;50.978;16.998;2023-10-19T02:06:27;99213.13;;;2.44;84.08
76605;BME280;73179;50.978;16.998;2023-10-19T02:08:58;99215.34;;;2.52;84.04
76605;BME280;73179;50.978;16.998;2023-10-19T02:11:47;99185.84;;;2.36;83.84
76605;BME280;73179;50.978;16.998;2023-10-19T02:14:17;99167.31;;;2.25;84.19
76605;BME280;73179;50.978;16.998;2023-10-19T02:16:46;99203.56;;;2.48;83.74
76605;BME280;73179;50.978;16.998;2023-10-19T02:19:13;99211.63;;;2.53;84.00
76605;BME280;73179;50.978;16.998;2023-10-19T02:21:39;99197.97;;;2.49;83.59
76605;BME280;73179;50.978;16.998;2023-10-19T02:24:07;99181.38;;;2.42;83.91
76605;BME280;73179;50.978;16.998;2023-10-19T02:26:34;99200.41;;;2.56;83.92
76605;BME280;73179;50.978;16.998;2023-10-19T02:29:00;99199.06;;;2.53;84.17
76605;BME280;73179;50.978;16.998;2023-10-19T02:31:26;99179.50;;;2.43;83.81
76605;BME280;73179;50.978;16.998;2023-10-19T02:33:54;99202.31;;;2.60;83.73
76605;BME280;73179;50.978;16.998;2023-10-19T02:36:27;99188.69;;;2.57;83.81
76605;BME280;73179;50.978;16.998;2023-10-19T02:38:59;99172.84;;;2.45;84.02
76605;BME280;73179;50.978;16.998;2023-10-19T02:41:26;99177.41;;;2.50;83.89
76605;BME280;73179;50.978;16.998;2023-10-19T02:43:53;99171.50;;;2.43;84.53
76605;BME280;73179;50.978;16.998;2023-10-19T02:46:38;99173.06;;;2.44;84.31
76605;BME280;73179;50.978;16.998;2023-10-19T02:49:06;99167.19;;;2.42;84.14
76605;BME280;73179;50.978;16.998;2023-10-19T02:51:43;99164.81;;;2.45;83.88
76605;BME280;73179;50.978;16.998;2023-10-19T02:54:13;99172.06;;;2.50;84.41
76605;BME280;73179;50.978;16.998;2023-10-19T02:56:44;99151.13;;;2.36;84.18
76605;BME280;73179;50.978;16.998;2023-10-19T02:59:16;99129.59;;;2.11;85.00
76605;BME280;73179;50.978;16.998;2023-10-19T03:01:42;99139.75;;;2.14;84.53
76605;BME280;73179;50.978;16.998;2023-10-19T03:04:11;99101.78;;;2.07;84.57
76605;BME280;73179;50.978;16.998;2023-10-19T03:06:38;99135.34;;;2.30;84.72
76605;BME280;73179;50.978;16.998;2023-10-19T03:09:08;99097.50;;;2.06;84.78
76605;BME280;73179;50.978;16.998;2023-10-19T03:11:55;99113.91;;;2.20;84.67
76605;BME280;73179;50.978;16.998;2023-10-19T03:14:26;99119.06;;;2.31;84.50
76605;BME280;73179;50.978;16.998;2023-10-19T03:16:53;99125.28;;;2.42;84.81
76605;BME280;73179;50.978;16.998;2023-10-19T03:19:23;99121.25;;;2.39;84.40
76605;BME280;73179;50.978;16.998;2023-10-19T03:21:50;99103.63;;;2.44;84.53
76605;BME280;73179;50.978;16.998;2023-10-19T03:24:18;99110.38;;;2.51;84.33
76605;BME280;73179;50.978;16.998;2023-10-19T03:27:04;99089.69;;;2.31;83.96
76605;BME280;73179;50.978;16.998;2023-10-19T03:29:39;99107.41;;;2.43;84.59
76605;BME280;73179;50.978;16.998;2023-10-19T03:32:06;99092.06;;;2.28;84.56
76605;BME280;73179;50.978;16.998;2023-10-19T03:34:34;99082.44;;;2.27;84.15
76605;BME280;73179;50.978;16.998;2023-10-19T03:37:00;99081.66;;;2.26;84.31
76605;BME280;73179;50.978;16.998;2023-10-19T03:39:33;99087.91;;;2.42;84.29
76605;BME280;73179;50.978;16.998;2023-10-19T03:42:04;99098.38;;;2.54;84.14
76605;BME280;73179;50.978;16.998;2023-10-19T03:44:34;99088.22;;;2.51;84.14
76605;BME280;73179;50.978;16.998;2023-10-19T03:47:06;99078.09;;;2.58;83.82
76605;BME280;73179;50.978;16.998;2023-10-19T03:49:38;99052.41;;;2.47;84.01
76605;BME280;73179;50.978;16.998;2023-10-19T03:52:05;99089.66;;;2.68;84.42
76605;BME280;73179;50.978;16.998;2023-10-19T03:54:35;99042.78;;;2.46;84.61
76605;BME280;73179;50.978;16.998;2023-10-19T03:57:11;99048.41;;;2.49;84.97
76605;BME280;73179;50.978;16.998;2023-10-19T03:59:38;99066.09;;;2.60;84.69
76605;BME280;73179;50.978;16.998;2023-10-19T04:02:04;99047.34;;;2.55;85.47
76605;BME280;73179;50.978;16.998;2023-10-19T04:04:40;99038.78;;;2.48;85.50
76605;BME280;73179;50.978;16.998;2023-10-19T04:07:12;99030.47;;;2.45;84.87
76605;BME280;73179;50.978;16.998;2023-10-19T04:09:50;99054.06;;;2.58;85.25
76605;BME280;73179;50.978;16.998;2023-10-19T04:12:39;99055.44;;;2.70;85.00
76605;BME280;73179;50.978;16.998;2023-10-19T04:15:09;99032.16;;;2.61;84.88
76605;BME280;73179;50.978;16.998;2023-10-19T04:17:46;99041.59;;;2.73;84.51
76605;BME280;73179;50.978;16.998;2023-10-19T04:20:15;99035.47;;;2.78;84.72
76605;BME280;73179;50.978;16.998;2023-10-19T04:22:54;99039.19;;;2.82;84.53
76605;BME280;73179;50.978;16.998;2023-10-19T04:25:20;99036.53;;;2.77;84.42
76605;BME280;73179;50.978;16.998;2023-10-19T04:27:50;99031.19;;;2.77;84.78
76605;BME280;73179;50.978;16.998;2023-10-19T04:30:16;99014.59;;;2.70;84.84
76605;BME280;73179;50.978;16.998;2023-10-19T04:32:49;98987.28;;;2.63;84.57
76605;BME280;73179;50.978;16.998;2023-10-19T04:35:16;99033.38;;;2.95;85.06
76605;BME280;73179;50.978;16.998;2023-10-19T04:37:52;99029.38;;;2.98;84.10
76605;BME280;73179;50.978;16.998;2023-10-19T04:40:22;99016.78;;;2.88;84.48
76605;BME280;73179;50.978;16.998;2023-10-19T04:42:50;99013.31;;;2.87;84.66
76605;BME280;73179;50.978;16.998;2023-10-19T04:45:17;99025.91;;;2.97;85.16
76605;BME280;73179;50.978;16.998;2023-10-19T04:47:43;99026.97;;;2.96;85.07
76605;BME280;73179;50.978;16.998;2023-10-19T04:50:10;98997.25;;;2.82;85.89
76605;BME280;73179;50.978;16.998;2023-10-19T04:52:36;99017.38;;;3.00;85.28
76605;BME280;73179;50.978;16.998;2023-10-19T04:55:03;98983.38;;;2.85;85.02
76605;BME280;73179;50.978;16.998;2023-10-19T04:57:28;99010.97;;;3.11;85.00
76605;BME280;73179;50.978;16.998;2023-10-19T04:59:55;98998.72;;;3.20;84.85
76605;BME280;73179;50.978;16.998;2023-10-19T05:02:21;98981.03;;;3.14;84.28
76605;BME280;73179;50.978;16.998;2023-10-19T05:04:47;98982.66;;;3.20;84.66
76605;BME280;73179;50.978;16.998;2023-10-19T05:07:13;98974.66;;;3.20;84.58
76605;BME280;73179;50.978;16.998;2023-10-19T05:09:43;98956.47;;;3.12;85.31
76605;BME280;73179;50.978;16.998;2023-10-19T05:12:09;98965.81;;;3.25;84.56
76605;BME280;73179;50.978;16.998;2023-10-19T05:14:38;98944.41;;;3.15;84.99
76605;BME280;73179;50.978;16.998;2023-10-19T05:17:05;98951.38;;;3.21;84.71
76605;BME280;73179;50.978;16.998;2023-10-19T05:19:32;98935.06;;;3.12;85.11
76605;BME280;73179;50.978;16.998;2023-10-19T05:21:59;98926.25;;;3.12;84.93
76605;BME280;73179;50.978;16.998;2023-10-19T05:24:27;98932.38;;;3.17;85.23
76605;BME280;73179;50.978;16.998;2023-10-19T05:26:56;98935.34;;;3.31;84.80
76605;BME280;73179;50.978;16.998;2023-10-19T05:29:22;98928.38;;;3.40;84.69
76605;BME280;73179;50.978;16.998;2023-10-19T05:31:53;98916.09;;;3.39;84.58
76605;BME280;73179;50.978;16.998;2023-10-19T05:34:20;98945.78;;;3.63;83.79
76605;BME280;73179;50.978;16.998;2023-10-19T05:36:46;98921.72;;;3.43;84.50
76605;BME280;73179;50.978;16.998;2023-10-19T05:39:18;98915.28;;;3.49;84.13
76605;BME280;73179;50.978;16.998;2023-10-19T05:41:43;98922.25;;;3.55;83.73
76605;BME280;73179;50.978;16.998;2023-10-19T05:44:10;98938.53;;;3.73;83.73
76605;BME280;73179;50.978;16.998;2023-10-19T05:46:36;98946.84;;;3.82;83.36
76605;BME280;73179;50.978;16.998;2023-10-19T05:49:02;98934.22;;;3.82;83.68
76605;BME280;73179;50.978;16.998;2023-10-19T05:51:30;98916.06;;;3.74;83.19
76605;BME280;73179;50.978;16.998;2023-10-19T05:53:56;98937.97;;;3.87;83.61
76605;BME280;73179;50.978;16.998;2023-10-19T05:56:28;98929.41;;;3.90;83.00
76605;BME280;73179;50.978;16.998;2023-10-19T05:58:54;98929.66;;;3.98;83.50
76605;BME280;73179;50.978;16.998;2023-10-19T06:01:20;98912.81;;;3.93;83.35
76605;BME280;73179;50.978;16.998;2023-10-19T06:03:48;98931.25;;;4.04;83.02
76605;BME280;73179;50.978;16.998;2023-10-19T06:06:13;98926.16;;;4.13;83.01
76605;BME280;73179;50.978;16.998;2023-10-19T06:08:40;98925.31;;;4.17;83.29
76605;BME280;73179;50.978;16.998;2023-10-19T06:11:06;98914.59;;;4.17;82.48
76605;BME280;73179;50.978;16.998;2023-10-19T06:13:32;98926.59;;;4.35;82.60
76605;BME280;73179;50.978;16.998;2023-10-19T06:15:58;98920.44;;;4.35;82.57
76605;BME280;73179;50.978;16.998;2023-10-19T06:18:24;98937.00;;;4.52;81.57
76605;BME280;73179;50.978;16.998;2023-10-19T06:20:50;98925.75;;;4.45;81.97
76605;BME280;73179;50.978;16.998;2023-10-19T06:23:17;98929.78;;;4.47;82.36
76605;BME280;73179;50.978;16.998;2023-10-19T06:25:44;98932.97;;;4.54;81.48
76605;BME280;73179;50.978;16.998;2023-10-19T06:28:10;98922.53;;;4.48;81.75
76605;BME280;73179;50.978;16.998;2023-10-19T06:30:39;98936.16;;;4.56;81.94
76605;BME280;73179;50.978;16.998;2023-10-19T06:33:06;98945.22;;;4.70;82.16
76605;BME280;73179;50.978;16.998;2023-10-19T06:35:33;98942.28;;;4.67;82.39
76605;BME280;73179;50.978;16.998;2023-10-19T06:38:00;98915.50;;;4.57;82.60
76605;BME280;73179;50.978;16.998;2023-10-19T06:40:27;98917.63;;;4.60;82.86
76605;BME280;73179;50.978;16.998;2023-10-19T06:42:57;98924.03;;;4.69;82.32
76605;BME280;73179;50.978;16.998;2023-10-19T06:45:24;98928.81;;;4.77;82.44
76605;BME280;73179;50.978;16.998;2023-10-19T06:47:55;98933.06;;;4.83;82.07
76605;BME280;73179;50.978;16.998;2023-10-19T06:50:23;98932.28;;;4.83;82.59
76605;BME280;73179;50.978;16.998;2023-10-19T06:52:50;98909.28;;;4.71;82.20
76605;BME280;73179;50.978;16.998;2023-10-19T06:55:17;98926.13;;;4.82;81.14
76605;BME280;73179;50.978;16.998;2023-10-19T06:57:49;98941.88;;;4.89;82.23
76605;BME280;73179;50.978;16.998;2023-10-19T07:00:16;98912.47;;;4.78;82.76
76605;BME280;73179;50.978;16.998;2023-10-19T07:02:46;98924.72;;;4.90;83.03
76605;BME280;73179;50.978;16.998;2023-10-19T07:05:13;98908.19;;;4.77;83.46
76605;BME280;73179;50.978;16.998;2023-10-19T07:07:45;98931.44;;;4.87;84.22
76605;BME280;73179;50.978;16.998;2023-10-19T07:10:12;98916.97;;;4.83;83.92
76605;BME280;73179;50.978;16.998;2023-10-19T07:12:44;98928.22;;;4.90;84.31
76605;BME280;73179;50.978;16.998;2023-10-19T07:15:10;98916.44;;;4.86;84.58
76605;BME280;73179;50.978;16.998;2023-10-19T07:17:46;98903.88;;;4.82;84.99
76605;BME280;73179;50.978;16.998;2023-10-19T07:20:13;98906.47;;;4.92;84.28
76605;BME280;73179;50.978;16.998;2023-10-19T07:22:59;98914.75;;;5.00;85.28
76605;BME280;73179;50.978;16.998;2023-10-19T07:25:29;98889.06;;;4.89;84.81
76605;BME280;73179;50.978;16.998;2023-10-19T07:27:55;98904.50;;;5.07;84.85
76605;BME280;73179;50.978;16.998;2023-10-19T07:30:21;98863.91;;;4.85;84.74
76605;BME280;73179;50.978;16.998;2023-10-19T07:32:52;98876.66;;;4.98;84.47
76605;BME280;73179;50.978;16.998;2023-10-19T07:35:27;98895.38;;;5.08;84.45
76605;BME280;73179;50.978;16.998;2023-10-19T07:37:55;98878.31;;;4.94;84.45
76605;BME280;73179;50.978;16.998;2023-10-19T07:40:22;98893.75;;;5.12;85.21
76605;BME280;73179;50.978;16.998;2023-10-19T07:42:51;98889.13;;;5.18;85.00
76605;BME280;73179;50.978;16.998;2023-10-19T07:45:19;98866.94;;;5.07;84.02
76605;BME280;73179;50.978;16.998;2023-10-19T07:47:45;98886.94;;;5.25;84.63
76605;BME280;73179;50.978;16.998;2023-10-19T07:50:12;98902.22;;;5.24;84.06
76605;BME280;73179;50.978;16.998;2023-10-19T07:52:46;98862.91;;;5.10;85.48
76605;BME280;73179;50.978;16.998;2023-10-19T07:55:13;98879.91;;;5.29;85.47
76605;BME280;73179;50.978;16.998;2023-10-19T07:57:40;98854.59;;;5.11;85.34
76605;BME280;73179;50.978;16.998;2023-10-19T08:00:10;98874.81;;;5.33;85.66
76605;BME280;73179;50.978;16.998;2023-10-19T08:02:40;98843.22;;;5.24;85.56
76605;BME280;73179;50.978;16.998;2023-10-19T08:05:11;98855.47;;;5.36;84.31
76605;BME280;73179;50.978;16.998;2023-10-19T08:07:38;98845.81;;;5.35;85.23
76605;BME280;73179;50.978;16.998;2023-10-19T08:10:09;98843.34;;;5.38;84.43
76605;BME280;73179;50.978;16.998;2023-10-19T08:12:37;98836.38;;;5.37;84.56
76605;BME280;73179;50.978;16.998;2023-10-19T08:15:04;98829.66;;;5.40;84.17
76605;BME280;73179;50.978;16.998;2023-10-19T08:17:32;98840.81;;;5.52;84.54
76605;BME280;73179;50.978;16.998;2023-10-19T08:19:59;98839.16;;;5.56;85.04
76605;BME280;73179;50.978;16.998;2023-10-19T08:22:29;98810.25;;;5.48;84.59
76605;BME280;73179;50.978;16.998;2023-10-19T08:24:56;98836.38;;;5.66;85.00
76605;BME280;73179;50.978;16.998;2023-10-19T08:27:22;98820.38;;;5.56;84.62
76605;BME280;73179;50.978;16.998;2023-10-19T08:29:49;98809.91;;;5.54;84.63
76605;BME280;73179;50.978;16.998;2023-10-19T08:32:16;98810.38;;;5.61;84.44
76605;BME280;73179;50.978;16.998;2023-10-19T08:34:42;98795.19;;;5.52;84.12
76605;BME280;73179;50.978;16.998;2023-10-19T08:37:08;98817.81;;;5.69;83.94
76605;BME280;73179;50.978;16.998;2023-10-19T08:39:34;98807.06;;;5.69;84.77
76605;BME280;73179;50.978;16.998;2023-10-19T08:42:03;98793.78;;;5.59;84.38
76605;BME280;73179;50.978;16.998;2023-10-19T08:44:33;98811.06;;;5.72;84.47
76605;BME280;73179;50.978;16.998;2023-10-19T08:46:59;98808.09;;;5.73;84.13
76605;BME280;73179;50.978;16.998;2023-10-19T08:49:26;98815.53;;;5.82;84.85
76605;BME280;73179;50.978;16.998;2023-10-19T08:51:53;98779.47;;;5.64;83.62
76605;BME280;73179;50.978;16.998;2023-10-19T08:54:20;98812.25;;;5.85;83.41
76605;BME280;73179;50.978;16.998;2023-10-19T08:56:46;98806.31;;;5.93;84.68
76605;BME280;73179;50.978;16.998;2023-10-19T08:59:13;98813.44;;;6.02;84.59
76605;BME280;73179;50.978;16.998;2023-10-19T09:01:43;98791.22;;;5.97;84.73
76605;BME280;73179;50.978;16.998;2023-10-19T09:04:12;98794.13;;;6.00;85.34
76605;BME280;73179;50.978;16.998;2023-10-19T09:06:44;98810.09;;;6.10;84.33
76605;BME280;73179;50.978;16.998;2023-10-19T09:09:12;98803.66;;;6.11;84.92
76605;BME280;73179;50.978;16.998;2023-10-19T09:11:51;98792.25;;;6.01;84.75
76605;BME280;73179;50.978;16.998;2023-10-19T09:14:34;98782.88;;;5.98;84.71
76605;BME280;73179;50.978;16.998;2023-10-19T09:17:02;98802.03;;;6.10;85.54
76605;BME280;73179;50.978;16.998;2023-10-19T09:19:44;98841.88;;;6.27;84.57
76605;BME280;73179;50.978;16.998;2023-10-19T09:22:13;98823.91;;;6.22;84.44
76605;BME280;73179;50.978;16.998;2023-10-19T09:24:49;98829.50;;;6.26;84.65
76605;BME280;73179;50.978;16.998;2023-10-19T09:27:24;98832.41;;;6.30;84.77
76605;BME280;73179;50.978;16.998;2023-10-19T09:29:50;98834.56;;;6.33;84.90
76605;BME280;73179;50.978;16.998;2023-10-19T09:32:18;98821.97;;;6.28;85.18
76605;BME280;73179;50.978;16.998;2023-10-19T09:34:45;98839.78;;;6.43;84.53
76605;BME280;73179;50.978;16.998;2023-10-19T09:37:16;98828.00;;;6.39;85.72
76605;BME280;73179;50.978;16.998;2023-10-19T09:39:42;98832.16;;;6.50;85.31
76605;BME280;73179;50.978;16.998;2023-10-19T09:42:09;98815.00;;;6.46;84.67
76605;BME280;73179;50.978;16.998;2023-10-19T09:44:44;98825.03;;;6.59;85.53
76605;BME280;73179;50.978;16.998;2023-10-19T09:47:29;98824.03;;;6.55;84.39
76605;BME280;73179;50.978;16.998;2023-10-19T09:50:03;98815.97;;;6.55;85.77
76605;BME280;73179;50.978;16.998;2023-10-19T09:52:33;98800.63;;;6.55;86.29
76605;BME280;73179;50.978;16.998;2023-10-19T09:55:16;98823.88;;;6.65;84.68
76605;BME280;73179;50.978;16.998;2023-10-19T09:57:50;98815.81;;;6.65;85.47
76605;BME280;73179;50.978;16.998;2023-10-19T10:00:18;98806.44;;;6.62;85.73
76605;BME280;73179;50.978;16.998;2023-10-19T10:02:50;98774.09;;;6.49;86.44
76605;BME280;73179;50.978;16.998;2023-10-19T10:10:50;98763.59;;;6.52;86.98
76605;BME280;73179;50.978;16.998;2023-10-19T10:15:58;98761.41;;;6.54;86.80
76605;BME280;73179;50.978;16.998;2023-10-19T10:18:27;98767.13;;;6.66;87.21
76605;BME280;73179;50.978;16.998;2023-10-19T10:21:12;98761.38;;;6.73;86.98
76605;BME280;73179;50.978;16.998;2023-10-19T10:23:42;98754.91;;;6.74;87.61
76605;BME280;73179;50.978;16.998;2023-10-19T10:26:09;98745.03;;;6.69;87.19
76605;BME280;73179;50.978;16.998;2023-10-19T10:28:35;98716.72;;;6.58;87.66
76605;BME280;73179;50.978;16.998;2023-10-19T10:31:18;98717.50;;;6.59;88.58
76605;BME280;73179;50.978;16.998;2023-10-19T10:33:45;98751.19;;;6.70;87.89
76605;BME280;73179;50.978;16.998;2023-10-19T10:36:13;98719.19;;;6.55;87.79
76605;BME280;73179;50.978;16.998;2023-10-19T10:38:40;98749.31;;;6.70;87.70
76605;BME280;73179;50.978;16.998;2023-10-19T10:41:07;98740.66;;;6.74;88.32
76605;BME280;73179;50.978;16.998;2023-10-19T10:43:50;98714.97;;;6.49;88.00
76605;BME280;73179;50.978;16.998;2023-10-19T10:46:26;98753.59;;;6.72;87.95
76605;BME280;73179;50.978;16.998;2023-10-19T10:48:53;98743.13;;;6.70;88.40
76605;BME280;73179;50.978;16.998;2023-10-19T10:53:53;98708.91;;;6.57;88.09
76605;BME280;73179;50.978;16.998;2023-10-19T10:56:22;98731.38;;;6.66;88.76
76605;BME280;73179;50.978;16.998;2023-10-19T10:58:48;98718.81;;;6.61;88.66
76605;BME280;73179;50.978;16.998;2023-10-19T11:01:14;98721.59;;;6.56;89.23
76605;BME280;73179;50.978;16.998;2023-10-19T11:03:41;98707.34;;;6.56;89.87
76605;BME280;73179;50.978;16.998;2023-10-19T11:06:09;98719.88;;;6.60;89.94
76605;BME280;73179;50.978;16.998;2023-10-19T11:08:36;98706.69;;;6.64;90.21
76605;BME280;73179;50.978;16.998;2023-10-19T11:11:08;98697.28;;;6.61;89.87
76605;BME280;73179;50.978;16.998;2023-10-19T11:13:38;98690.63;;;6.59;90.36
76605;BME280;73179;50.978;16.998;2023-10-19T11:16:06;98665.81;;;6.48;90.90
76605;BME280;73179;50.978;16.998;2023-10-19T11:21:06;98693.53;;;6.76;90.61
76605;BME280;73179;50.978;16.998;2023-10-19T11:23:40;98694.88;;;6.79;90.83
76605;BME280;73179;50.978;16.998;2023-10-19T11:26:07;98691.88;;;6.80;90.11
76605;BME280;73179;50.978;16.998;2023-10-19T11:28:34;98693.75;;;6.80;90.52
76605;BME280;73179;50.978;16.998;2023-10-19T11:33:45;98677.25;;;6.86;90.42
76605;BME280;73179;50.978;16.998;2023-10-19T11:36:12;98636.38;;;6.70;90.34
76605;BME280;73179;50.978;16.998;2023-10-19T11:38:40;98640.88;;;6.75;89.86
76605;BME280;73179;50.978;16.998;2023-10-19T11:41:06;98652.44;;;6.89;90.55
76605;BME280;73179;50.978;16.998;2023-10-19T11:43:34;98645.38;;;6.93;90.88
76605;BME280;73179;50.978;16.998;2023-10-19T11:46:01;98625.63;;;6.84;90.28
76605;BME280;73179;50.978;16.998;2023-10-19T11:48:28;98626.22;;;6.81;90.48
76605;BME280;73179;50.978;16.998;2023-10-19T11:50:54;98639.59;;;6.86;89.86
76605;BME280;73179;50.978;16.998;2023-10-19T11:53:20;98613.00;;;6.85;89.95
76605;BME280;73179;50.978;16.998;2023-10-19T11:55:46;98631.94;;;6.93;90.37
76605;BME280;73179;50.978;16.998;2023-10-19T11:58:14;98615.78;;;6.93;90.03
76605;BME280;73179;50.978;16.998;2023-10-19T12:00:41;98591.28;;;6.95;90.41
76605;BME280;73179;50.978;16.998;2023-10-19T12:03:12;98604.94;;;6.98;90.46
76605;BME280;73179;50.978;16.998;2023-10-19T12:05:40;98610.53;;;7.02;90.67
76605;BME280;73179;50.978;16.998;2023-10-19T12:08:07;98579.81;;;6.89;89.99
76605;BME280;73179;50.978;16.998;2023-10-19T12:10:34;98580.44;;;6.86;90.45
76605;BME280;73179;50.978;16.998;2023-10-19T12:13:06;98583.72;;;6.97;90.16
76605;BME280;73179;50.978;16.998;2023-10-19T12:15:34;98576.22;;;7.07;90.85
76605;BME280;73179;50.978;16.998;2023-10-19T12:18:00;98539.88;;;6.96;90.25
76605;BME280;73179;50.978;16.998;2023-10-19T12:20:29;98565.38;;;7.12;90.08
76605;BME280;73179;50.978;16.998;2023-10-19T12:22:59;98551.63;;;7.14;89.76
76605;BME280;73179;50.978;16.998;2023-10-19T12:25:26;98557.97;;;7.32;90.22
76605;BME280;73179;50.978;16.998;2023-10-19T12:27:57;98553.81;;;7.26;89.67
76605;BME280;73179;50.978;16.998;2023-10-19T12:30:24;98551.78;;;7.31;90.20
76605;BME280;73179;50.978;16.998;2023-10-19T12:32:52;98534.66;;;7.27;90.10
76605;BME280;73179;50.978;16.998;2023-10-19T12:35:19;98535.81;;;7.35;89.95
76605;BME280;73179;50.978;16.998;2023-10-19T12:37:57;98545.34;;;7.54;89.50
76605;BME280;73179;50.978;16.998;2023-10-19T12:40:23;98539.97;;;7.54;89.74
76605;BME280;73179;50.978;16.998;2023-10-19T12:42:52;98544.69;;;7.71;90.16
76605;BME280;73179;50.978;16.998;2023-10-19T12:45:26;98537.59;;;7.75;90.22
76605;BME280;73179;50.978;16.998;2023-10-19T12:47:52;98511.28;;;7.72;90.17
76605;BME280;73179;50.978;16.998;2023-10-19T12:50:19;98541.94;;;7.85;89.59
76605;BME280;73179;50.978;16.998;2023-10-19T12:52:49;98548.81;;;7.91;88.85
76605;BME280;73179;50.978;16.998;2023-10-19T12:55:17;98533.75;;;7.90;89.14
76605;BME280;73179;50.978;16.998;2023-10-19T12:57:43;98524.50;;;7.82;88.87
76605;BME280;73179;50.978;16.998;2023-10-19T13:00:10;98530.88;;;7.86;88.82
76605;BME280;73179;50.978;16.998;2023-10-19T13:02:55;98525.97;;;7.88;88.83
76605;BME280;73179;50.978;16.998;2023-10-19T13:05:33;98522.53;;;7.96;89.59
76605;BME280;73179;50.978;16.998;2023-10-19T13:08:00;98519.84;;;7.96;89.60
76605;BME280;73179;50.978;16.998;2023-10-19T13:10:30;98547.88;;;8.18;89.33
76605;BME280;73179;50.978;16.998;2023-10-19T13:13:04;98514.38;;;8.10;89.11
76605;BME280;73179;50.978;16.998;2023-10-19T13:15:34;98502.31;;;8.07;89.03
76605;BME280;73179;50.978;16.998;2023-10-19T13:18:01;98524.16;;;8.28;89.72
76605;BME280;73179;50.978;16.998;2023-10-19T13:20:28;98526.84;;;8.28;89.28
76605;BME280;73179;50.978;16.998;2023-10-19T13:23:03;98500.34;;;8.22;89.01
76605;BME280;73179;50.978;16.998;2023-10-19T13:25:30;98514.09;;;8.42;89.09
76605;BME280;73179;50.978;16.998;2023-10-19T13:28:32;98519.25;;;8.52;88.92
76605;BME280;73179;50.978;16.998;2023-10-19T13:30:58;98497.13;;;8.42;87.89